Data for 12/10/2008

Time Sea-Level Adjusted Pressure Absolute Pressure Temperature Relative Humidity Dew Point   
(mb) (inHg) (mb) (inHg) (C) (F) (%) (C) (F)
00:05 1023 30.21 852 25.16 1 33.7 74 -3.1 26.4
00:10 1023 30.21 852 25.16 0.9 33.7 73 -3.4 25.9
00:15 1023 30.21 852 25.16 0.8 33.5 72 -3.7 25.4
00:20 1023 30.21 852 25.16 0.7 33.3 70 -4.1 24.7
00:25 1023 30.21 852 25.16 1 33.7 69 -4.1 24.6
00:30 1023 30.21 852 25.16 1.1 34 67 -4.3 24.2
00:35 1023 30.21 852 25.16 1.4 34.4 66 -4.4 24.1
00:40 1023 30.21 852 25.16 1.5 34.7 64 -4.5 23.9
00:45 1023 30.21 852 25.16 2 35.6 64 -4.1 24.6
00:50 1023 30.21 852 25.16 1.9 35.4 68 -3.4 25.9
00:55 1023 30.21 852 25.16 1.9 35.4 66 -3.8 25.1
01:00 1023 30.21 852 25.16 2.3 36.1 65 -3.7 25.4
01:05 1023 30.21 852 25.16 2.5 36.5 66 -3.2 26.2
01:10 1023 30.21 852 25.16 2.5 36.4 65 -3.5 25.7
01:15 1023 30.21 852 25.16 2.3 36.2 69 -2.8 26.9
01:20 1023 30.21 852 25.16 1.6 34.8 70 -3.3 26.1
01:25 1023 30.21 852 25.16 1.4 34.5 70 -3.5 25.7
01:30 1023 30.21 852 25.16 1.7 35 69 -3.4 25.9
01:35 1023 30.21 852 25.16 1.9 35.3 68 -3.5 25.7
01:40 1023 30.21 852 25.16 2 35.5 68 -3.4 25.9
01:45 1023 30.21 852 25.16 2 35.6 68 -3.4 25.9
01:50 1022 30.18 852 25.16 2.1 35.8 67 -3.4 25.9
01:55 1022 30.18 851 25.13 1.9 35.4 69 -3.1 26.4
02:00 1022 30.18 851 25.13 1.7 35.1 70 -3.3 26.1
02:05 1022 30.18 851 25.13 1.7 35 69 -3.4 25.8
02:10 1022 30.18 851 25.13 1.8 35.3 68 -3.5 25.7
02:15 1022 30.18 851 25.13 2.2 36 65 -3.7 25.4
02:20 1022 30.18 852 25.16 2.6 36.7 64 -3.4 25.8
02:25 1023 30.21 852 25.16 2.8 37 63 -3.6 25.6
02:30 1023 30.21 852 25.16 3.2 37.8 60 -3.8 25.2
02:35 1024 30.24 853 25.19 3.7 38.7 56 -4.3 24.2
02:40 1023 30.21 853 25.19 3.9 39.1 56 -4 24.8
02:45 1023 30.21 852 25.16 3.9 39.1 55 -4.4 24.1
02:50 1023 30.21 853 25.19 4.1 39.3 54 -4.4 24.1
02:55 1024 30.24 853 25.19 4 39.2 49 -5.8 21.5
03:00 1024 30.24 853 25.19 4.2 39.6 50 -5.3 22.5
03:05 1024 30.24 853 25.19 4.1 39.4 61 -2.7 27.2
03:10 1024 30.24 853 25.19 3.3 37.9 54 -5.2 22.6
03:15 1024 30.24 853 25.19 3.6 38.6 58 -3.9 25
03:20 1024 30.24 853 25.19 3.4 38.1 62 -3.3 26.1
03:25 1024 30.24 853 25.19 2.9 37.3 66 -2.7 27.1
03:30 1024 30.24 853 25.19 2.4 36.3 69 -2.7 27.1
03:35 1024 30.24 853 25.19 2.3 36.1 68 -3 26.7
03:40 1024 30.24 853 25.19 2.5 36.4 67 -3.1 26.5
03:45 1024 30.24 853 25.19 2.6 36.6 68 -2.8 27
03:50 1024 30.24 853 25.19 2.5 36.5 67 -3.1 26.4
03:55 1024 30.24 853 25.19 2.3 36.2 70 -2.6 27.2
04:00 1024 30.24 853 25.19 2.3 36.2 70 -2.5 27.4
04:05 1024 30.24 854 25.22 2.1 35.8 71 -2.7 27.2
04:10 1024 30.24 854 25.22 2.4 36.4 67 -3 26.5
04:15 1024 30.24 854 25.22 3.1 37.5 62 -3.5 25.8
04:20 1024 30.24 854 25.22 3.4 38 62 -3.2 26.3
04:25 1024 30.24 854 25.22 3.3 38 64 -2.9 26.7
04:30 1024 30.24 854 25.22 3 37.4 64 -3.1 26.4
04:35 1025 30.27 854 25.22 3 37.3 64 -3.3 26.1
04:40 1025 30.27 854 25.22 3.1 37.6 63 -3.3 26.1
04:45 1025 30.27 854 25.22 3.2 37.8 64 -3 26.6
04:50 1025 30.27 854 25.22 3.1 37.7 64 -2.9 26.7
04:55 1025 30.27 854 25.22 3.2 37.8 63 -3.2 26.2
05:00 1025 30.27 854 25.22 3.4 38.1 64 -2.8 26.9
05:05 1025 30.27 854 25.22 3.3 38 62 -3.3 26
05:10 1025 30.27 854 25.22 3.2 37.8 64 -3 26.6
05:15 1025 30.27 854 25.22 2.9 37.3 65 -3.1 26.5
05:20 1025 30.27 854 25.22 2.8 37 65 -3.1 26.4
05:25 1025 30.27 854 25.22 2.7 36.8 66 -3.1 26.4
05:30 1025 30.27 854 25.22 2.6 36.7 66 -3.2 26.3
05:35 1025 30.27 854 25.22 2.6 36.7 66 -3.2 26.3
05:40 1025 30.27 854 25.22 2.7 36.8 65 -3.2 26.3
05:45 1025 30.27 854 25.22 2.7 36.9 66 -3 26.5
05:50 1025 30.27 854 25.22 2.7 36.9 66 -3.1 26.4
05:55 1025 30.27 854 25.22 2.8 37.1 65 -3 26.6
06:00 1025 30.27 854 25.22 2.9 37.2 66 -2.8 26.9
06:05 1025 30.27 854 25.22 2.8 37.1 65 -3 26.6
06:10 1025 30.27 854 25.22 2.9 37.2 63 -3.4 25.8
06:15 1025 30.27 854 25.22 3 37.5 63 -3.2 26.2
06:20 1025 30.27 855 25.25 3.1 37.6 62 -3.6 25.5
06:25 1025 30.27 855 25.25 3.2 37.8 61 -3.5 25.7
06:30 1026 30.3 855 25.25 3.2 37.8 61 -3.6 25.5
06:35 1026 30.3 855 25.25 3.2 37.8 61 -3.5 25.7
06:40 1026 30.3 855 25.25 3.2 37.7 61 -3.7 25.4
06:45 1026 30.3 855 25.25 3.2 37.8 61 -3.5 25.6
06:50 1026 30.3 855 25.25 3.1 37.5 62 -3.5 25.6
06:55 1026 30.3 855 25.25 2.9 37.3 63 -3.5 25.7
07:00 1026 30.3 855 25.25 2.7 36.9 63 -3.7 25.4
07:05 1026 30.3 855 25.25 2.8 37.1 63 -3.5 25.6
07:10 1026 30.3 855 25.25 2.9 37.3 63 -3.4 25.8
07:15 1026 30.3 855 25.25 3 37.4 62 -3.7 25.4
07:20 1026 30.3 855 25.25 3 37.5 61 -3.7 25.4
07:25 1026 30.3 855 25.25 2.9 37.3 62 -3.5 25.6
07:30 1026 30.3 855 25.25 2.8 37.1 66 -2.9 26.7
07:35 1026 30.3 855 25.25 2.3 36.1 66 -3.3 26
07:40 1026 30.3 855 25.25 2.4 36.3 66 -3.3 26.1
07:45 1026 30.3 855 25.25 2.3 36.2 67 -3.2 26.3
07:50 1026 30.3 855 25.25 2.1 35.8 69 -3.1 26.4
07:55 1026 30.3 855 25.25 2 35.5 68 -3.2 26.2
08:00 1026 30.3 855 25.25 2.2 35.9 65 -3.7 25.3
08:05 1026 30.3 855 25.25 2.5 36.4 64 -3.7 25.3
08:10 1026 30.3 855 25.25 2.5 36.4 64 -3.7 25.3
08:15 1026 30.3 855 25.25 2.5 36.5 64 -3.7 25.4
08:20 1026 30.3 856 25.28 2.2 35.9 66 -3.6 25.6
08:25 1027 30.33 856 25.28 2 35.6 66 -3.8 25.2
08:30 1027 30.33 856 25.28 2 35.6 65 -3.9 24.9
08:35 1027 30.33 856 25.28 2 35.7 65 -3.9 25
08:40 1027 30.33 856 25.28 2 35.5 65 -3.9 25
08:45 1027 30.33 856 25.28 1.9 35.4 67 -3.5 25.7
08:50 1027 30.33 856 25.28 1.8 35.2 66 -4 24.8
08:55 1027 30.33 856 25.28 1.9 35.4 65 -4 24.8
09:00 1027 30.33 856 25.28 2.1 35.8 64 -4 24.8
09:05 1026 30.3 856 25.28 2.2 36 62 -4.3 24.3
09:10 1027 30.33 856 25.28 2.3 36.2 64 -3.8 25.2
09:15 1027 30.33 856 25.28 2.4 36.3 63 -3.9 25
09:20 1027 30.33 856 25.28 2.4 36.3 61 -4.3 24.2
09:25 1027 30.33 856 25.28 2.6 36.6 61 -4.2 24.4
09:30 1027 30.33 856 25.28 2.8 37 59 -4.5 23.9
09:35 1027 30.33 856 25.28 2.9 37.2 60 -4.2 24.5
09:40 1027 30.33 856 25.28 2.8 37.1 60 -4.2 24.5
09:45 1027 30.33 856 25.28 3 37.4 59 -4.2 24.4
09:50 1027 30.33 856 25.28 3.5 38.3 56 -4.5 23.8
09:55 1027 30.33 856 25.28 3.6 38.6 56 -4.4 24.1
10:00 1027 30.33 856 25.28 3.7 38.6 57 -4.1 24.6
10:05 1027 30.33 856 25.28 3.2 37.7 58 -4.3 24.3
10:10 1027 30.33 856 25.28 3.5 38.3 57 -4.3 24.2
10:15 1027 30.33 856 25.28 3.7 38.7 56 -4.3 24.3
10:20 1027 30.33 856 25.28 3.7 38.6 57 -4.1 24.6
10:25 1027 30.33 856 25.28 3.5 38.2 57 -4.2 24.4
10:30 1027 30.33 856 25.28 3.4 38 57 -4.3 24.3
10:35 1027 30.33 856 25.28 3.4 38.2 57 -4.4 24.1
10:40 1026 30.3 856 25.28 3.5 38.3 57 -4.1 24.5
10:45 1026 30.3 856 25.28 3.5 38.3 57 -4.2 24.4
10:50 1026 30.3 856 25.28 3.3 38 58 -4.1 24.6
10:55 1026 30.3 856 25.28 3.4 38.1 57 -4.3 24.3
11:00 1026 30.3 855 25.25 3.4 38.1 58 -4.1 24.6
11:05 1026 30.3 855 25.25 3.4 38.2 58 -4.1 24.6
11:10 1026 30.3 855 25.25 3.7 38.6 57 -4 24.8
11:15 1026 30.3 855 25.25 3.9 39 57 -3.9 25.1
11:20 1026 30.3 855 25.25 4.2 39.6 56 -3.8 25.2
11:25 1026 30.3 855 25.25 4.4 40 55 -3.7 25.3
11:30 1026 30.3 855 25.25 4.1 39.3 57 -3.7 25.4
11:35 1026 30.3 855 25.25 3.9 39.1 58 -3.5 25.7
11:40 1026 30.3 855 25.25 3.8 38.8 58 -3.7 25.3
11:45 1026 30.3 855 25.25 4 39.3 58 -3.6 25.6
11:50 1026 30.3 855 25.25 4.2 39.6 57 -3.6 25.4
11:55 1026 30.3 855 25.25 4.3 39.7 57 -3.5 25.8
12:00 1026 30.3 855 25.25 4.6 40.3 55 -3.6 25.5
12:05 1025 30.27 855 25.25 4.8 40.6 56 -3.4 25.9
12:10 1025 30.27 855 25.25 4.8 40.7 55 -3.5 25.8
12:15 1026 30.3 855 25.25 4.9 40.8 55 -3.4 25.9
12:20 1026 30.3 855 25.25 5 40.9 55 -3.2 26.2
12:25 1026 30.3 855 25.25 5.1 41.1 55 -3.1 26.3
12:30 1026 30.3 855 25.25 4.8 40.7 57 -3 26.6
12:35 1026 30.3 855 25.25 4.4 40 58 -3 26.6
12:40 1026 30.3 855 25.25 4.4 39.8 59 -3 26.7
12:45 1026 30.3 855 25.25 4.3 39.8 59 -3.1 26.5
12:50 1026 30.3 855 25.25 4.7 40.4 58 -2.9 26.7
12:55 1026 30.3 855 25.25 4.8 40.7 57 -3 26.5
13:00 1026 30.3 855 25.25 5 41 56 -3 26.6
13:05 1026 30.3 855 25.25 5.3 41.5 56 -2.8 26.9
13:10 1026 30.3 855 25.25 5.5 41.9 55 -2.7 27.2
13:15 1026 30.3 855 25.25 5.3 41.5 58 -2.4 27.7
13:20 1026 30.3 855 25.25 4.6 40.4 61 -2.3 27.9
13:25 1026 30.3 855 25.25 4.4 39.9 61 -2.4 27.7
13:30 1026 30.3 855 25.25 4.4 39.8 61 -2.6 27.4
13:35 1026 30.3 855 25.25 4.3 39.8 61 -2.5 27.6
13:40 1026 30.3 855 25.25 4.3 39.8 61 -2.5 27.5
13:45 1026 30.3 855 25.25 4.2 39.6 61 -2.7 27.2
13:50 1026 30.3 855 25.25 4.1 39.4 62 -2.6 27.3
13:55 1025 30.27 855 25.25 4.2 39.6 62 -2.5 27.5
14:00 1025 30.27 855 25.25 4.3 39.7 61 -2.5 27.6
14:05 1025 30.27 854 25.22 4.2 39.6 62 -2.5 27.6
14:10 1025 30.27 854 25.22 4.2 39.5 62 -2.6 27.4
14:15 1025 30.27 854 25.22 4.3 39.7 61 -2.6 27.3
14:20 1025 30.27 854 25.22 4.3 39.8 60 -2.8 27
14:25 1025 30.27 854 25.22 4.4 39.8 59 -2.9 26.8
14:30 1025 30.27 854 25.22 4.4 40 58 -3 26.5
14:35 1025 30.27 854 25.22 4.5 40.2 60 -2.5 27.4
14:40 1025 30.27 854 25.22 4.7 40.5 58 -2.8 27
14:45 1025 30.27 854 25.22 5.2 41.4 57 -2.7 27.2
14:50 1025 30.27 854 25.22 5.6 42 54 -2.9 26.7
14:55 1025 30.27 854 25.22 5.7 42.3 56 -2.4 27.6
15:00 1025 30.27 854 25.22 5.5 42 57 -2.4 27.8
15:05 1025 30.27 854 25.22 5.5 41.9 57 -2.4 27.7
15:10 1025 30.27 854 25.22 5.8 42.4 59 -1.6 29.1
15:15 1025 30.27 854 25.22 5.4 41.7 63 -1.1 30
15:20 1025 30.27 854 25.22 4.9 40.9 65 -1.1 30.1
15:25 1025 30.27 854 25.22 4.8 40.7 61 -2.1 28.2
15:30 1025 30.27 854 25.22 5.4 41.8 58 -2.2 28.1
15:35 1025 30.27 854 25.22 5.9 42.6 58 -1.8 28.8
15:40 1025 30.27 854 25.22 6.1 42.9 56 -2 28.3
15:45 1025 30.27 854 25.22 6.1 43 55 -2.1 28.1
15:50 1025 30.27 854 25.22 6.4 43.5 55 -2 28.4
15:55 1025 30.27 854 25.22 6.4 43.5 54 -2.3 27.9
16:00 1024 30.24 854 25.22 6.4 43.5 53 -2.6 27.4
16:05 1024 30.24 854 25.22 6.3 43.3 55 -2.1 28.1
16:10 1024 30.24 854 25.22 6.2 43.1 55 -2.2 28.1
16:15 1024 30.24 854 25.22 5.9 42.7 57 -1.9 28.6
16:20 1024 30.24 853 25.19 5.7 42.3 57 -2.2 28.1
16:25 1024 30.24 853 25.19 5.6 42.1 58 -2.1 28.3
16:30 1024 30.24 853 25.19 5.7 42.2 57 -2.1 28.3
16:35 1024 30.24 853 25.19 5.7 42.3 57 -2.2 28.1
16:40 1024 30.24 853 25.19 5.8 42.4 57 -2.1 28.3
16:45 1024 30.24 853 25.19 5.8 42.4 57 -2.1 28.2
16:50 1024 30.24 853 25.19 5.6 42.2 57 -2.1 28.2
16:55 1024 30.24 853 25.19 5.6 42 57 -2.3 27.9
17:00 1024 30.24 853 25.19 5.6 42.1 57 -2.2 28
17:05 1024 30.24 853 25.19 5.5 41.8 57 -2.2 28
17:10 1024 30.24 853 25.19 5.5 41.8 58 -2 28.3
17:15 1024 30.24 853 25.19 5.4 41.7 58 -2.1 28.2
17:20 1024 30.24 853 25.19 5.3 41.5 58 -2.3 27.9
17:25 1024 30.24 853 25.19 5.4 41.7 58 -2.2 28.1
17:30 1024 30.24 853 25.19 5.5 41.9 57 -2.3 27.8
17:35 1024 30.24 853 25.19 5.7 42.2 57 -2.1 28.2
17:40 1024 30.24 853 25.19 5.7 42.2 57 -2.2 28
17:45 1024 30.24 853 25.19 5.7 42.2 58 -2 28.4
17:50 1024 30.24 853 25.19 5.6 42 56 -2.4 27.6
17:55 1024 30.24 853 25.19 5.8 42.5 55 -2.4 27.7
18:00 1024 30.24 853 25.19 5.8 42.5 56 -2.2 28.1
18:05 1024 30.24 853 25.19 5.9 42.6 55 -2.5 27.6
18:10 1024 30.24 853 25.19 5.9 42.6 56 -2.2 28
18:15 1024 30.24 853 25.19 5.6 42.1 58 -2.1 28.2
18:20 1024 30.24 853 25.19 5.5 41.8 58 -2.2 28.1
18:25 1024 30.24 853 25.19 5.5 41.9 58 -2.1 28.2
18:30 1024 30.24 853 25.19 5.5 42 58 -2 28.4
18:35 1024 30.24 853 25.19 5.4 41.7 59 -2 28.4
18:40 1024 30.24 853 25.19 5.2 41.4 59 -2.2 28.1
18:45 1024 30.24 853 25.19 5.5 41.8 58 -2.1 28.2
18:50 1024 30.24 853 25.19 5.5 41.9 59 -1.9 28.6
18:55 1024 30.24 853 25.19 5.3 41.5 59 -2 28.4
19:00 1024 30.24 853 25.19 5.4 41.7 58 -2.1 28.2
19:05 1024 30.24 853 25.19 5.4 41.8 58 -2.1 28.3
19:10 1024 30.24 853 25.19 5.3 41.6 59 -2 28.3
19:15 1024 30.24 853 25.19 5.4 41.7 58 -2.3 27.9
19:20 1024 30.24 853 25.19 5.5 41.8 57 -2.3 27.9
19:25 1024 30.24 853 25.19 5.5 41.8 58 -2.2 28.1
19:30 1024 30.24 853 25.19 5.5 41.9 58 -2.2 28.1
19:35 1024 30.24 853 25.19 5.5 41.9 58 -2 28.4
19:40 1024 30.24 853 25.19 5.4 41.7 59 -1.9 28.6
19:45 1024 30.24 853 25.19 5.3 41.6 59 -2 28.5
19:50 1024 30.24 853 25.19 5.3 41.6 59 -2 28.4
19:55 1024 30.24 853 25.19 5.2 41.4 59 -2.1 28.2
20:00 1024 30.24 853 25.19 5.2 41.3 60 -2 28.4
20:05 1024 30.24 853 25.19 5.1 41.2 59 -2.3 27.8
20:10 1024 30.24 853 25.19 5.2 41.4 58 -2.3 27.9
20:15 1024 30.24 853 25.19 5.3 41.5 58 -2.3 27.9
20:20 1024 30.24 853 25.19 5.2 41.4 57 -2.6 27.4
20:25 1024 30.24 853 25.19 5.3 41.5 57 -2.6 27.4
20:30 1024 30.24 853 25.19 5.4 41.7 56 -2.7 27.2
20:35 1024 30.24 853 25.19 5.5 42 56 -2.6 27.3
20:40 1024 30.24 853 25.19 5.5 41.8 56 -2.6 27.3
20:45 1024 30.24 853 25.19 5.4 41.7 57 -2.5 27.5
20:50 1024 30.24 853 25.19 5.4 41.7 56 -2.6 27.3
20:55 1024 30.24 853 25.19 5.3 41.6 57 -2.5 27.5
21:00 1024 30.24 853 25.19 5.2 41.4 58 -2.4 27.8
21:05 1024 30.24 853 25.19 5 41.1 58 -2.5 27.5
21:10 1024 30.24 853 25.19 5 41 58 -2.5 27.5
21:15 1024 30.24 853 25.19 5 41 59 -2.4 27.6
21:20 1024 30.24 853 25.19 4.9 40.8 59 -2.4 27.7
21:25 1024 30.24 853 25.19 4.8 40.6 59 -2.5 27.5
21:30 1024 30.24 853 25.19 4.8 40.6 59 -2.6 27.3
21:35 1024 30.24 853 25.19 4.9 40.7 58 -2.7 27.1
21:40 1024 30.24 853 25.19 5 40.9 57 -2.8 27
21:45 1024 30.24 853 25.19 5 41 57 -2.8 27
21:50 1024 30.24 853 25.19 5.1 41.1 58 -2.5 27.5
21:55 1024 30.24 853 25.19 5 40.9 58 -2.6 27.3
22:00 1024 30.24 853 25.19 4.9 40.9 59 -2.5 27.6
22:05 1023 30.21 853 25.19 4.7 40.4 61 -2.2 28
22:10 1023 30.21 853 25.19 4.6 40.3 59 -2.6 27.3
22:15 1024 30.24 853 25.19 4.6 40.2 60 -2.6 27.4
22:20 1024 30.24 853 25.19 4.6 40.3 59 -2.7 27.1
22:25 1024 30.24 853 25.19 4.7 40.5 59 -2.6 27.4
22:30 1024 30.24 853 25.19 4.8 40.6 58 -2.7 27.1
22:35 1024 30.24 853 25.19 4.9 40.8 58 -2.7 27.1
22:40 1024 30.24 853 25.19 4.9 40.7 59 -2.5 27.5
22:45 1024 30.24 853 25.19 4.7 40.4 60 -2.5 27.4
22:50 1024 30.24 853 25.19 4.7 40.5 59 -2.6 27.4
22:55 1024 30.24 853 25.19 4.8 40.7 58 -2.7 27.1
23:00 1024 30.24 853 25.19 4.8 40.7 59 -2.6 27.3
23:05 1024 30.24 853 25.19 4.8 40.7 58 -2.8 27
23:10 1024 30.24 853 25.19 4.8 40.7 58 -2.8 27
23:15 1024 30.24 853 25.19 4.9 40.8 58 -2.7 27.1
23:20 1024 30.24 853 25.19 4.9 40.7 57 -2.9 26.8
23:25 1024 30.24 853 25.19 4.9 40.8 58 -2.8 27
23:30 1024 30.24 853 25.19 4.9 40.8 57 -3 26.6
23:35 1024 30.24 853 25.19 4.7 40.5 58 -2.9 26.7
23:40 1024 30.24 853 25.19 4.6 40.3 57 -3.1 26.4
23:45 1024 30.24 853 25.19 4.6 40.3 57 -3.1 26.4
23:50 1024 30.24 853 25.19 4.6 40.2 58 -3 26.5
23:55 1024 30.24 853 25.19 4.5 40.1 57 -3.2 26.3
24:00 1024 30.24 853 25.19 4.6 40.3 57 -3.3 26.1